メインページ
METAR-TAF:

METAR-TAF

空港 :

ハガニア, グアム, アメリカ合衆国

グアム国際空港

緯度: 13-29N, 経度: 144-48E, 海抜: 91m

現時点の気象観測

当レポートは23分前の00:54(UTC)に作成
東/南東の風 10kt
気温 30°C
湿度 70%
気圧 1013 hPa
視程: 16.1km
高度2200ftの雲は散在している

METAR: PGUM 230054Z 12010KT 10SM SCT022 30/24 A2990 RMK AO2 SLP118 T03000244 $

時間: 11:17 (01:17 UTC)

予報

当レポートは1時間47分前の23:30(UTC)に作成
予報は23日の 00時(UTC)から 24日の 06時(UTC)まで有効
の風 12kt
視程: 10km
高度2500ftの雲はほとんどない
高度5000ftの雲は散在している
23日の 0800時(UTC)から
の風 8kt
視程: 10km
高度2500ftの雲はほとんどない
高度5000ftの雲はほとんどない

TAF: PGUM 222330Z 2300/2406 09012KT P6SM FEW025 SCT050 FM230800 09008KT P6SM FEW025 FEW050

4,000以上の空港の気象観測と天気予報(METAR報とTAF報)

利用可能な観測所は地図上に黄色い丸と赤い丸で示す。

丸の上にカーソルを重ねると観測所名を参照できる。

次にクリックすると気象観測と天気予報を参照できる。

マップの切り替え:黒色「×」印の緑ボタンをクリックして拡大、「-」印の緑ボタンをクリックして縮小、緑色の三角印をクリックして隣りの地図に切り替え


METAR-TAF: